createdAt,value
2019-05-17T00:01:42.619Z,89.23
2019-05-17T00:04:16.486Z,89.12
2019-05-17T00:06:48.558Z,89.20
2019-05-17T00:09:20.809Z,89.01
2019-05-17T00:11:52.968Z,88.83
2019-05-17T00:14:27.107Z,88.97
2019-05-17T00:16:59.060Z,88.92
2019-05-17T00:19:32.119Z,88.91
2019-05-17T00:22:07.391Z,88.90
2019-05-17T00:24:39.060Z,89.10
2019-05-17T00:27:10.167Z,89.40
2019-05-17T00:29:41.928Z,90.51
2019-05-17T00:32:14.229Z,89.76
2019-05-17T00:34:46.979Z,89.96
2019-05-17T00:37:17.706Z,90.95
2019-05-17T00:39:49.529Z,91.24
2019-05-17T00:42:21.533Z,90.34
2019-05-17T00:44:52.509Z,90.07
2019-05-17T00:47:26.411Z,91.17
2019-05-17T00:49:58.198Z,90.36
2019-05-17T00:52:30.449Z,89.93
2019-05-17T00:55:02.483Z,89.91
2019-05-17T00:57:33.548Z,90.13
2019-05-17T01:00:05.680Z,90.95
2019-05-17T01:02:37.624Z,90.31
2019-05-17T01:05:10.078Z,90.24
2019-05-17T01:07:42.120Z,90.18
2019-05-17T01:10:13.647Z,89.95
2019-05-17T01:12:45.416Z,90.77
2019-05-17T01:15:19.288Z,90.47
2019-05-17T01:17:51.558Z,89.94
2019-05-17T01:20:22.687Z,89.89
2019-05-17T01:22:56.534Z,90.66
2019-05-17T01:25:28.373Z,90.21
2019-05-17T01:28:00.399Z,90.00
2019-05-17T01:30:32.739Z,90.15
2019-05-17T01:33:06.580Z,90.01
2019-05-17T01:35:38.598Z,89.79
2019-05-17T01:38:12.268Z,89.80
2019-05-17T01:40:43.468Z,89.88
2019-05-17T01:43:16.669Z,90.59
2019-05-17T01:45:48.788Z,90.14
2019-05-17T01:48:21.628Z,89.88
2019-05-17T01:50:56.790Z,90.04
2019-05-17T01:53:37.020Z,90.03
2019-05-17T01:56:11.700Z,90.17
2019-05-17T01:58:43.980Z,90.10
2019-05-17T02:01:16.971Z,90.01
2019-05-17T02:03:49.249Z,89.98
2019-05-17T02:06:20.347Z,90.04
2019-05-17T02:08:52.379Z,90.89
2019-05-17T02:11:26.756Z,90.53
2019-05-17T02:13:58.369Z,90.32
2019-05-17T02:16:33.829Z,90.19
2019-05-17T02:19:06.886Z,90.23
2019-05-17T02:21:42.598Z,90.20
2019-05-17T02:24:16.967Z,90.27
2019-05-17T02:26:50.841Z,90.37
2019-05-17T02:29:27.779Z,90.53
2019-05-17T02:32:06.851Z,90.43
2019-05-17T02:34:42.966Z,90.41
2019-05-17T02:37:23.533Z,90.42
2019-05-17T02:40:04.577Z,90.47
2019-05-17T02:42:42.997Z,90.39
2019-05-17T02:45:15.899Z,90.35
2019-05-17T02:47:54.080Z,90.32
2019-05-17T02:50:28.580Z,90.31
2019-05-17T02:53:06.617Z,90.07
2019-05-17T02:55:39.584Z,90.15
2019-05-17T02:58:12.872Z,90.17
2019-05-17T03:00:45.745Z,90.24
2019-05-17T03:03:23.657Z,90.15
2019-05-17T03:05:57.040Z,90.46
2019-05-17T03:08:34.210Z,90.25
2019-05-17T03:11:13.959Z,90.24
2019-05-17T03:13:52.559Z,90.41
2019-05-17T03:16:24.974Z,90.40
2019-05-17T03:18:57.931Z,90.68
2019-05-17T03:21:33.749Z,90.35
2019-05-17T03:24:08.471Z,90.38
2019-05-17T03:26:42.960Z,90.43
2019-05-17T03:29:14.771Z,90.35
2019-05-17T03:31:57.582Z,90.13
2019-05-17T03:34:26.375Z,90.02
2019-05-17T03:36:57.052Z,89.89
2019-05-17T03:39:33.278Z,89.90
2019-05-17T03:42:05.360Z,89.90
2019-05-17T03:44:39.070Z,89.56
2019-05-17T03:47:13.129Z,89.32
2019-05-17T03:49:49.098Z,89.20
2019-05-17T03:52:22.387Z,89.44
2019-05-17T03:54:56.736Z,89.33
2019-05-17T03:57:29.219Z,89.17
2019-05-17T04:00:03.804Z,89.11
2019-05-17T04:02:43.793Z,88.84
2019-05-17T04:05:14.311Z,88.78
2019-05-17T04:07:46.908Z,88.77
2019-05-17T04:10:22.831Z,88.95
2019-05-17T04:13:12.707Z,88.78
2019-05-17T04:15:52.717Z,89.26
2019-05-17T04:18:26.100Z,89.46
2019-05-17T04:20:58.552Z,89.27
2019-05-17T04:23:34.014Z,89.52
2019-05-17T04:26:06.149Z,89.78
2019-05-17T04:28:39.011Z,90.10
2019-05-17T04:31:13.343Z,90.21
2019-05-17T04:33:47.348Z,90.23
2019-05-17T04:36:22.459Z,89.69
2019-05-17T04:38:54.974Z,89.46
2019-05-17T04:41:41.551Z,89.31
2019-05-17T04:44:05.688Z,89.33
2019-05-17T04:46:39.218Z,89.37
2019-05-17T04:49:14.989Z,89.28
2019-05-17T04:51:47.730Z,89.17
2019-05-17T04:54:24.418Z,89.11
2019-05-17T04:56:56.642Z,88.97
2019-05-17T04:59:33.358Z,89.01
2019-05-17T05:02:12.923Z,88.82
2019-05-17T05:04:47.527Z,88.60
2019-05-17T05:07:22.691Z,88.42
2019-05-17T05:09:58.490Z,88.41
2019-05-17T05:12:33.636Z,88.31
2019-05-17T05:15:08.400Z,88.29
2019-05-17T05:17:42.585Z,88.03
2019-05-17T05:20:15.592Z,87.90
2019-05-17T05:22:48.375Z,87.95
2019-05-17T05:25:21.653Z,87.72
2019-05-17T05:31:13.355Z,87.84
2019-05-17T05:33:46.365Z,87.31
2019-05-17T05:36:18.875Z,87.44
2019-05-17T05:38:51.645Z,87.38
2019-05-17T05:41:26.299Z,87.07
2019-05-17T05:43:58.827Z,86.91
2019-05-17T05:46:31.797Z,87.12
2019-05-17T05:49:05.274Z,86.88
2019-05-17T05:51:38.160Z,87.02
2019-05-17T05:54:12.317Z,87.31
2019-05-17T05:56:44.910Z,87.18
2019-05-17T05:59:17.541Z,86.94
2019-05-17T06:01:52.426Z,86.65
2019-05-17T06:04:24.438Z,86.67
2019-05-17T06:06:57.230Z,85.58
2019-05-17T06:09:31.752Z,84.54
2019-05-17T06:12:03.976Z,84.60
2019-05-17T06:14:36.585Z,84.65
2019-05-17T06:17:09.105Z,85.09
2019-05-17T06:19:42.862Z,85.62
2019-05-17T06:22:15.854Z,85.89
2019-05-17T06:24:48.495Z,85.75
2019-05-17T06:27:21.584Z,85.93
2019-05-17T06:29:54.575Z,86.11
2019-05-17T06:32:27.377Z,86.37
2019-05-17T06:35:01.886Z,86.75
2019-05-17T06:37:34.157Z,86.80
2019-05-17T06:40:06.840Z,86.58
2019-05-17T06:42:44.126Z,86.70
2019-05-17T06:45:14.516Z,87.03
2019-05-17T06:47:47.255Z,87.36
2019-05-17T06:50:23.466Z,87.31
2019-05-17T06:52:55.303Z,86.99
2019-05-17T06:55:27.909Z,86.81
2019-05-17T06:58:01.720Z,86.50
2019-05-17T07:00:34.445Z,86.10
2019-05-17T07:03:09.408Z,85.23
2019-05-17T07:05:43.346Z,85.50
2019-05-17T07:08:16.035Z,85.34
2019-05-17T07:10:50.239Z,85.12
2019-05-17T07:13:22.917Z,84.17
2019-05-17T07:15:55.685Z,83.67
2019-05-17T07:18:30.048Z,83.47
2019-05-17T07:21:03.440Z,83.37
2019-05-17T07:23:36.195Z,83.70
2019-05-17T07:26:11.821Z,83.79
2019-05-17T07:28:43.436Z,84.50
2019-05-17T07:31:16.296Z,84.87
2019-05-17T07:33:50.458Z,85.32
2019-05-17T07:36:23.196Z,85.52
2019-05-17T07:38:55.863Z,85.59
2019-05-17T07:41:29.834Z,85.60
2019-05-17T07:44:03.550Z,84.99
2019-05-17T07:49:06.571Z,84.30
2019-05-17T07:51:39.663Z,84.34
2019-05-17T07:54:13.906Z,84.28
2019-05-17T07:56:46.335Z,84.25
2019-05-17T07:59:19.998Z,84.47
2019-05-17T08:01:52.745Z,84.39
2019-05-17T08:04:31.735Z,84.50
2019-05-17T08:07:04.676Z,84.36
2019-05-17T08:09:37.216Z,84.34
2019-05-17T08:12:11.026Z,84.13
2019-05-17T08:14:43.686Z,84.43
2019-05-17T08:17:16.285Z,84.52
2019-05-17T08:19:49.779Z,84.54
2019-05-17T08:22:22.586Z,84.13
2019-05-17T08:24:55.015Z,83.75
2019-05-17T08:27:29.658Z,83.54
2019-05-17T08:30:01.706Z,82.80
2019-05-17T08:32:34.495Z,82.08
2019-05-17T08:35:07.298Z,81.96
2019-05-17T08:37:42.471Z,81.59
2019-05-17T08:40:15.484Z,82.05
2019-05-17T08:42:49.882Z,81.94
2019-05-17T08:45:22.466Z,82.35
2019-05-17T08:47:54.841Z,82.63
2019-05-17T08:50:29.365Z,82.48
2019-05-17T08:53:02.168Z,83.33
2019-05-17T08:55:34.706Z,84.03
2019-05-17T08:58:09.997Z,84.55
2019-05-17T09:00:41.596Z,84.05
2019-05-17T09:03:14.286Z,84.24
2019-05-17T09:05:46.877Z,84.08
2019-05-17T09:08:20.580Z,83.64
2019-05-17T09:10:53.536Z,84.28
2019-05-17T09:13:26.142Z,83.80
2019-05-17T09:16:00.269Z,83.69
2019-05-17T09:18:33.335Z,83.00
2019-05-17T09:21:06.177Z,80.90
2019-05-17T09:23:39.644Z,79.29
2019-05-17T09:26:12.549Z,77.46
2019-05-17T09:28:45.530Z,75.58
2019-05-17T09:31:21.676Z,75.42
2019-05-17T09:33:54.556Z,75.92
2019-05-17T09:36:30.104Z,76.31
2019-05-17T09:39:01.853Z,76.29
2019-05-17T09:41:36.475Z,76.05
2019-05-17T09:44:15.674Z,70.95
2019-05-17T09:46:43.505Z,70.10
2019-05-17T09:49:15.946Z,67.86
2019-05-17T09:51:49.684Z,66.68
2019-05-17T09:54:37.240Z,67.54
2019-05-17T09:56:57.596Z,68.44
2019-05-17T09:59:30.335Z,67.62
2019-05-17T10:02:02.825Z,68.18
2019-05-17T10:04:35.463Z,66.06
2019-05-17T10:07:10.201Z,65.67
2019-05-17T10:09:42.176Z,65.51
2019-05-17T10:12:14.774Z,66.37
2019-05-17T10:14:55.195Z,66.41
2019-05-17T10:17:29.477Z,67.40
2019-05-17T10:20:02.316Z,68.04
2019-05-17T10:22:34.887Z,68.18
2019-05-17T10:25:10.420Z,68.52
2019-05-17T10:27:43.047Z,67.91
2019-05-17T10:30:15.547Z,66.36
2019-05-17T10:32:50.607Z,63.43
2019-05-17T10:35:22.418Z,63.63
2019-05-17T10:37:55.697Z,62.66
2019-05-17T10:40:29.881Z,61.31
2019-05-17T10:43:03.780Z,62.62
2019-05-17T10:45:40.095Z,63.65
2019-05-17T10:48:13.816Z,64.37
2019-05-17T10:55:54.005Z,65.46
2019-05-17T10:58:26.606Z,65.46
2019-05-17T11:01:00.809Z,63.81
2019-05-17T11:03:34.666Z,62.05
2019-05-17T11:06:07.518Z,61.90
2019-05-17T11:08:39.926Z,62.50
2019-05-17T11:11:12.575Z,63.27
2019-05-17T11:13:45.125Z,60.01
2019-05-17T11:16:17.715Z,58.29
2019-05-17T11:18:51.005Z,58.40
2019-05-17T11:21:23.737Z,57.14
2019-05-17T11:23:56.213Z,55.65
2019-05-17T11:26:29.015Z,57.34
2019-05-17T11:29:27.771Z,59.25
2019-05-17T11:32:37.297Z,59.35
2019-05-17T11:35:45.395Z,63.53
2019-05-17T11:38:21.555Z,66.51
2019-05-17T11:40:54.300Z,63.45
2019-05-17T11:43:26.776Z,68.73
2019-05-17T11:45:59.370Z,68.09
2019-05-17T11:48:31.845Z,70.31
2019-05-17T11:51:04.525Z,70.31
2019-05-17T11:53:37.035Z,71.64
2019-05-17T11:56:09.616Z,72.00
2019-05-17T11:58:42.095Z,73.44
2019-05-17T12:01:14.957Z,75.05
2019-05-17T12:03:47.556Z,75.82
2019-05-17T12:06:20.406Z,77.17
2019-05-17T12:08:53.166Z,78.27
2019-05-17T12:11:25.765Z,78.85
2019-05-17T12:13:58.716Z,78.74
2019-05-17T12:16:31.256Z,77.80
2019-05-17T12:19:03.860Z,77.59
2019-05-17T12:21:36.476Z,74.22
2019-05-17T12:24:09.641Z,74.48
2019-05-17T12:26:42.296Z,73.98
2019-05-17T12:29:15.185Z,72.80
2019-05-17T12:31:47.619Z,72.58
2019-05-17T12:34:21.455Z,73.15
2019-05-17T12:36:54.056Z,72.85
2019-05-17T12:39:26.479Z,72.32
2019-05-17T12:41:59.245Z,71.65
2019-05-17T12:44:31.877Z,67.52
2019-05-17T12:47:04.826Z,66.78
2019-05-17T12:49:37.528Z,65.58
2019-05-17T12:52:10.397Z,64.10
2019-05-17T12:54:43.136Z,62.03
2019-05-17T12:57:16.886Z,64.38
2019-05-17T12:59:49.575Z,65.20
2019-05-17T13:02:22.256Z,65.27
2019-05-17T13:04:55.117Z,66.29
2019-05-17T13:07:28.045Z,66.25
2019-05-17T13:10:00.656Z,63.47
2019-05-17T13:12:33.454Z,62.84
2019-05-17T13:15:07.329Z,64.93
2019-05-17T13:17:39.848Z,64.31
2019-05-17T13:20:13.216Z,63.09
2019-05-17T13:22:46.289Z,62.71
2019-05-17T13:25:18.962Z,63.06
2019-05-17T13:27:53.147Z,63.46
2019-05-17T13:30:25.925Z,65.38
2019-05-17T13:32:58.947Z,65.60
2019-05-17T13:35:31.602Z,66.20
2019-05-17T13:38:04.297Z,66.00
2019-05-17T13:40:39.641Z,66.08
2019-05-17T13:43:11.272Z,64.83
2019-05-17T13:45:44.717Z,65.03
2019-05-17T13:48:17.796Z,65.44
2019-05-17T13:50:52.909Z,65.73
2019-05-17T13:53:25.943Z,66.68
2019-05-17T13:55:59.487Z,66.93
2019-05-17T13:58:31.984Z,66.93
2019-05-17T14:01:04.656Z,67.40
2019-05-17T14:03:37.312Z,67.74
2019-05-17T14:06:09.866Z,67.74
2019-05-17T14:08:42.592Z,68.04
2019-05-17T14:11:15.158Z,67.89
2019-05-17T14:13:47.658Z,67.89
2019-05-17T14:16:20.359Z,68.26
2019-05-17T14:18:52.819Z,68.96
2019-05-17T14:21:25.455Z,68.25
2019-05-17T14:23:58.565Z,68.25
2019-05-17T14:26:32.047Z,68.44
2019-05-17T14:29:04.576Z,68.94
2019-05-17T14:31:37.268Z,69.46
2019-05-17T14:34:10.075Z,70.21
2019-05-17T14:36:42.964Z,70.00
2019-05-17T14:39:17.097Z,70.43
2019-05-17T14:41:49.607Z,70.98
2019-05-17T14:44:22.606Z,68.45
2019-05-17T14:46:55.137Z,65.89
2019-05-17T14:49:27.756Z,64.63
2019-05-17T14:52:00.317Z,63.35
2019-05-17T14:54:32.796Z,62.35
2019-05-17T14:57:05.429Z,62.35
2019-05-17T14:59:37.966Z,62.47
2019-05-17T15:02:10.508Z,62.47
2019-05-17T15:04:43.121Z,62.21
2019-05-17T15:07:15.605Z,62.21
2019-05-17T15:09:48.021Z,63.65
2019-05-17T15:12:28.528Z,64.62
2019-05-17T15:14:55.126Z,66.13
2019-05-17T15:17:27.795Z,66.05
2019-05-17T15:20:00.455Z,66.05
2019-05-17T15:22:34.842Z,64.53
2019-05-17T15:25:07.560Z,62.68
2019-05-17T15:27:40.177Z,61.84
2019-05-17T15:30:12.949Z,61.66
2019-05-17T15:32:45.564Z,62.03
2019-05-17T15:35:18.899Z,62.03
2019-05-17T15:37:53.096Z,61.42
2019-05-17T15:40:25.881Z,62.33
2019-05-17T15:42:58.366Z,62.45
2019-05-17T15:45:31.603Z,63.66
2019-05-17T15:48:04.226Z,64.07
2019-05-17T15:50:36.847Z,63.57
2019-05-17T15:53:10.352Z,63.93
2019-05-17T15:55:43.745Z,64.26
2019-05-17T15:58:16.346Z,62.81
2019-05-17T16:00:49.485Z,62.41
2019-05-17T16:03:21.955Z,62.77
2019-05-17T16:05:56.277Z,63.02
2019-05-17T16:08:29.814Z,63.64
2019-05-17T16:11:04.545Z,63.83
2019-05-17T16:13:37.035Z,63.83
2019-05-17T16:16:11.036Z,64.49
2019-05-17T16:18:45.147Z,65.39
2019-05-17T16:21:18.275Z,66.37
2019-05-17T16:23:52.380Z,66.26
2019-05-17T16:26:24.944Z,65.97
2019-05-17T16:28:59.003Z,65.97
2019-05-17T16:31:32.943Z,66.04
2019-05-17T16:34:05.606Z,65.72
2019-05-17T16:36:38.056Z,65.82
2019-05-17T16:39:10.588Z,64.09
2019-05-17T16:41:43.066Z,64.09
2019-05-17T16:44:15.638Z,64.68
2019-05-17T16:46:49.625Z,63.78
2019-05-17T16:49:22.378Z,64.20
2019-05-17T16:51:55.211Z,64.73
2019-05-17T16:54:28.123Z,65.21
2019-05-17T16:57:00.661Z,65.58
2019-05-17T16:59:33.379Z,65.51
2019-05-17T17:02:05.979Z,65.75
2019-05-17T17:04:38.689Z,65.89
2019-05-17T17:07:11.106Z,66.35
2019-05-17T17:09:44.170Z,66.85
2019-05-17T17:12:16.651Z,67.38
2019-05-17T17:14:50.255Z,67.38
2019-05-17T17:17:22.768Z,68.10
2019-05-17T17:19:55.414Z,68.20
2019-05-17T17:22:27.966Z,68.67
2019-05-17T17:25:00.620Z,68.67
2019-05-17T17:27:33.036Z,69.55
2019-05-17T17:30:05.985Z,69.55
2019-05-17T17:32:39.585Z,70.06
2019-05-17T17:35:13.255Z,70.05
2019-05-17T17:37:45.977Z,70.03
2019-05-17T17:40:22.611Z,70.41
2019-05-17T17:42:55.086Z,69.74
2019-05-17T17:45:27.807Z,70.24
2019-05-17T17:48:00.365Z,70.60
2019-05-17T17:50:32.969Z,71.13
2019-05-17T17:53:06.676Z,71.38
2019-05-17T17:55:39.849Z,71.77
2019-05-17T17:58:12.246Z,72.30
2019-05-17T18:00:44.937Z,72.73
2019-05-17T18:03:18.364Z,73.09
2019-05-17T18:05:51.045Z,73.34
2019-05-17T18:08:23.756Z,73.60
2019-05-17T18:10:56.366Z,73.91
2019-05-17T18:13:29.146Z,73.99
2019-05-17T18:16:01.806Z,74.05
2019-05-17T18:18:34.355Z,74.13
2019-05-17T18:21:06.934Z,73.97
2019-05-17T18:23:39.435Z,74.09
2019-05-17T18:26:12.577Z,74.46
2019-05-17T18:28:45.040Z,74.69
2019-05-17T18:31:17.600Z,75.00
2019-05-17T18:33:50.276Z,75.33
2019-05-17T18:36:22.925Z,75.71
2019-05-17T18:38:55.958Z,76.22
2019-05-17T18:41:28.507Z,76.59
2019-05-17T18:44:00.948Z,76.87
2019-05-17T18:46:33.614Z,77.07
2019-05-17T18:49:06.085Z,77.22
2019-05-17T18:51:38.501Z,77.42
2019-05-17T18:54:14.266Z,77.39
2019-05-17T18:56:46.806Z,77.67
2019-05-17T18:59:19.196Z,77.64
2019-05-17T19:01:51.729Z,77.87
2019-05-17T19:04:24.299Z,77.96
2019-05-17T19:06:56.872Z,77.99
2019-05-17T19:09:29.667Z,78.12
2019-05-17T19:12:02.276Z,77.22
2019-05-17T19:14:42.478Z,76.73
2019-05-17T19:17:09.986Z,76.93
2019-05-17T19:19:42.506Z,76.67
2019-05-17T19:22:15.286Z,76.52
2019-05-17T19:24:48.675Z,76.74
2019-05-17T19:27:22.986Z,76.99
2019-05-17T19:29:55.888Z,76.87
2019-05-17T19:32:28.626Z,76.90
2019-05-17T19:35:01.066Z,76.61
2019-05-17T19:37:33.597Z,76.29
2019-05-17T19:40:07.036Z,76.33
2019-05-17T19:42:40.906Z,76.09
2019-05-17T19:45:15.358Z,75.91
2019-05-17T19:47:47.969Z,75.47
2019-05-17T19:50:20.806Z,75.61
2019-05-17T19:52:54.528Z,75.28
2019-05-17T19:55:27.096Z,75.14
2019-05-17T19:57:59.976Z,75.46
2019-05-17T20:00:43.958Z,75.40
2019-05-17T20:03:25.356Z,75.11
2019-05-17T20:06:09.634Z,75.04
2019-05-17T20:08:51.580Z,74.99
2019-05-17T20:11:36.682Z,75.22
2019-05-17T20:14:21.596Z,75.65
2019-05-17T20:17:04.769Z,75.69
2019-05-17T20:19:45.506Z,76.05
2019-05-17T20:22:30.636Z,76.27
2019-05-17T20:25:17.316Z,76.58
2019-05-17T20:28:01.026Z,76.72
2019-05-17T20:30:44.386Z,76.70
2019-05-17T20:33:27.289Z,76.75
2019-05-17T20:36:08.345Z,77.06
2019-05-17T20:38:51.430Z,77.53
2019-05-17T20:41:31.974Z,77.70
2019-05-17T20:44:11.309Z,77.49
2019-05-17T20:46:50.233Z,77.24
2019-05-17T20:49:30.856Z,77.09
2019-05-17T20:52:04.566Z,77.16
2019-05-17T20:54:37.125Z,77.48
2019-05-17T20:57:11.395Z,77.98
2019-05-17T20:59:45.676Z,78.37
2019-05-17T21:02:18.215Z,78.47
2019-05-17T21:04:50.979Z,78.60
2019-05-17T21:07:23.500Z,78.99
2019-05-17T21:09:56.210Z,79.27
2019-05-17T21:12:28.646Z,79.60
2019-05-17T21:15:01.176Z,79.80
2019-05-17T21:17:33.807Z,79.90
2019-05-17T21:20:06.586Z,79.93
2019-05-17T21:22:39.557Z,80.00
2019-05-17T21:25:12.880Z,79.92
2019-05-17T21:27:45.329Z,80.12
2019-05-17T21:30:17.806Z,80.22
2019-05-17T21:32:50.499Z,80.14
2019-05-17T21:35:23.315Z,80.02
2019-05-17T21:37:56.065Z,80.00
2019-05-17T21:40:29.536Z,80.27
2019-05-17T21:43:02.081Z,80.26
2019-05-17T21:45:34.667Z,80.43
2019-05-17T21:48:07.525Z,80.35
2019-05-17T21:50:40.056Z,80.08
2019-05-17T21:53:12.714Z,79.90
2019-05-17T21:55:45.185Z,80.21
2019-05-17T21:58:20.310Z,80.37
2019-05-17T22:01:16.010Z,80.50
2019-05-17T22:03:49.735Z,80.70
2019-05-17T22:06:22.418Z,81.04
2019-05-17T22:08:54.845Z,81.06
2019-05-17T22:11:27.425Z,81.09
2019-05-17T22:14:00.024Z,81.30
2019-05-17T22:16:32.499Z,81.65
2019-05-17T22:19:04.966Z,82.04
2019-05-17T22:21:37.548Z,81.97
2019-05-17T22:24:10.049Z,81.74
2019-05-17T22:26:42.706Z,81.81
2019-05-17T22:29:14.927Z,81.90
2019-05-17T22:31:47.479Z,81.72
2019-05-17T22:34:20.035Z,81.66
2019-05-17T22:36:52.775Z,81.79
2019-05-17T22:39:25.589Z,81.97
2019-05-17T22:41:58.085Z,82.20
2019-05-17T22:44:30.618Z,82.13
2019-05-17T22:47:03.106Z,82.32
2019-05-17T22:49:35.496Z,82.61
2019-05-17T22:52:08.066Z,83.04
2019-05-17T22:54:40.708Z,83.36
2019-05-17T22:57:13.260Z,83.53
2019-05-17T22:59:45.825Z,83.65
2019-05-17T23:02:18.305Z,83.86
2019-05-17T23:04:50.697Z,84.10
2019-05-17T23:07:23.256Z,84.26
2019-05-17T23:09:55.765Z,84.61
2019-05-17T23:12:28.187Z,84.72
2019-05-17T23:15:00.590Z,84.74
2019-05-17T23:17:33.428Z,84.86
2019-05-17T23:20:06.676Z,84.86
2019-05-17T23:22:39.228Z,84.82
2019-05-17T23:25:11.766Z,84.28
2019-05-17T23:27:44.218Z,83.94
2019-05-17T23:30:16.720Z,83.84
2019-05-17T23:32:49.733Z,83.79
2019-05-17T23:35:22.235Z,83.79
2019-05-17T23:37:54.615Z,83.77
2019-05-17T23:40:27.061Z,83.52
2019-05-17T23:43:01.053Z,83.41
2019-05-17T23:45:33.396Z,83.74
2019-05-17T23:48:06.085Z,83.86
2019-05-17T23:50:38.496Z,83.80
2019-05-17T23:53:10.945Z,83.75
2019-05-17T23:55:43.445Z,83.90
2019-05-17T23:58:15.985Z,84.03
